Terminal Aerodrome Forecast
Issued by NWS

Home | Current Version | Previous Version | Text Only | Print | Product List | Glossary On
Versions: 1 2 3 4 5 6 7 8 9 10 11 12 13 14 15 16 17 18 19 20 21 22 23 24 25 26 27 28 29 30
311
FTUS45 KGJT 231140
TAFMTJ
TAF
KMTJ 231140Z 2312/2412 14007KT P6SM BKN250
     FM231600 VRB03KT P6SM SCT250
     FM231900 28007KT P6SM SCT250
     FM240100 28006KT P6SM SCT110 BKN200
     FM240600 13005KT P6SM SCT200=

USA.gov is the U.S. government's official web portal to all federal, state and local government web resources and services.